sensor_id;sensor_type;location;lat;lon;timestamp;P1;durP1;ratioP1;P2;durP2;ratioP2
21036;SDS011;10677;50.942;4.028;2023-05-19T00:01:50;14.48;;;6.97;;
21036;SDS011;10677;50.942;4.028;2023-05-19T00:04:16;13.93;;;7.30;;
21036;SDS011;10677;50.942;4.028;2023-05-19T00:06:43;19.08;;;7.28;;
21036;SDS011;10677;50.942;4.028;2023-05-19T00:09:14;13.68;;;7.03;;
21036;SDS011;10677;50.942;4.028;2023-05-19T00:11:40;11.93;;;6.53;;
21036;SDS011;10677;50.942;4.028;2023-05-19T00:14:07;19.80;;;8.00;;
21036;SDS011;10677;50.942;4.028;2023-05-19T00:16:34;15.25;;;7.68;;
21036;SDS011;10677;50.942;4.028;2023-05-19T00:19:01;13.73;;;8.32;;
21036;SDS011;10677;50.942;4.028;2023-05-19T00:21:29;15.43;;;8.13;;
21036;SDS011;10677;50.942;4.028;2023-05-19T00:23:55;15.38;;;7.70;;
21036;SDS011;10677;50.942;4.028;2023-05-19T00:26:22;14.10;;;7.43;;
21036;SDS011;10677;50.942;4.028;2023-05-19T00:28:49;15.88;;;7.35;;
21036;SDS011;10677;50.942;4.028;2023-05-19T00:31:15;16.90;;;7.70;;
21036;SDS011;10677;50.942;4.028;2023-05-19T00:33:41;19.98;;;8.27;;
21036;SDS011;10677;50.942;4.028;2023-05-19T00:36:06;13.88;;;7.85;;
21036;SDS011;10677;50.942;4.028;2023-05-19T00:38:33;19.20;;;8.40;;
21036;SDS011;10677;50.942;4.028;2023-05-19T00:41:00;14.63;;;7.07;;
21036;SDS011;10677;50.942;4.028;2023-05-19T00:43:27;14.00;;;8.07;;
21036;SDS011;10677;50.942;4.028;2023-05-19T00:45:56;13.00;;;7.78;;
21036;SDS011;10677;50.942;4.028;2023-05-19T00:48:23;16.10;;;7.72;;
21036;SDS011;10677;50.942;4.028;2023-05-19T00:50:49;19.42;;;8.18;;
21036;SDS011;10677;50.942;4.028;2023-05-19T00:53:16;16.40;;;8.63;;
21036;SDS011;10677;50.942;4.028;2023-05-19T00:55:42;15.20;;;8.35;;
21036;SDS011;10677;50.942;4.028;2023-05-19T00:58:09;19.27;;;8.65;;
21036;SDS011;10677;50.942;4.028;2023-05-19T01:00:36;14.38;;;7.82;;
21036;SDS011;10677;50.942;4.028;2023-05-19T01:03:04;14.68;;;8.65;;
21036;SDS011;10677;50.942;4.028;2023-05-19T01:05:39;16.30;;;8.18;;
21036;SDS011;10677;50.942;4.028;2023-05-19T01:08:05;17.52;;;8.80;;
21036;SDS011;10677;50.942;4.028;2023-05-19T01:10:32;17.17;;;8.18;;
21036;SDS011;10677;50.942;4.028;2023-05-19T01:12:57;17.63;;;8.95;;
21036;SDS011;10677;50.942;4.028;2023-05-19T01:15:23;13.35;;;8.23;;
21036;SDS011;10677;50.942;4.028;2023-05-19T01:20:34;15.73;;;8.73;;
21036;SDS011;10677;50.942;4.028;2023-05-19T01:31:38;17.92;;;9.40;;
21036;SDS011;10677;50.942;4.028;2023-05-19T01:34:06;16.25;;;9.30;;
21036;SDS011;10677;50.942;4.028;2023-05-19T01:36:33;18.45;;;8.90;;
21036;SDS011;10677;50.942;4.028;2023-05-19T01:39:01;17.60;;;8.77;;
21036;SDS011;10677;50.942;4.028;2023-05-19T01:41:27;17.60;;;8.82;;
21036;SDS011;10677;50.942;4.028;2023-05-19T01:43:54;17.80;;;9.55;;
21036;SDS011;10677;50.942;4.028;2023-05-19T01:46:21;16.13;;;8.68;;
21036;SDS011;10677;50.942;4.028;2023-05-19T01:48:48;19.13;;;9.32;;
21036;SDS011;10677;50.942;4.028;2023-05-19T01:51:14;20.02;;;9.20;;
21036;SDS011;10677;50.942;4.028;2023-05-19T01:53:40;14.52;;;9.10;;
21036;SDS011;10677;50.942;4.028;2023-05-19T01:56:06;21.70;;;9.98;;
21036;SDS011;10677;50.942;4.028;2023-05-19T02:06:32;18.67;;;9.75;;
21036;SDS011;10677;50.942;4.028;2023-05-19T02:12:00;13.93;;;9.13;;
21036;SDS011;10677;50.942;4.028;2023-05-19T02:17:01;15.38;;;9.25;;
21036;SDS011;10677;50.942;4.028;2023-05-19T02:19:30;15.05;;;9.57;;
21036;SDS011;10677;50.942;4.028;2023-05-19T02:21:57;18.77;;;9.52;;
21036;SDS011;10677;50.942;4.028;2023-05-19T02:24:23;15.95;;;9.23;;
21036;SDS011;10677;50.942;4.028;2023-05-19T02:26:50;17.83;;;10.15;;
21036;SDS011;10677;50.942;4.028;2023-05-19T02:29:16;20.23;;;9.55;;
21036;SDS011;10677;50.942;4.028;2023-05-19T02:31:43;19.63;;;10.07;;
21036;SDS011;10677;50.942;4.028;2023-05-19T02:34:08;15.95;;;9.40;;
21036;SDS011;10677;50.942;4.028;2023-05-19T02:36:34;20.17;;;9.73;;
21036;SDS011;10677;50.942;4.028;2023-05-19T02:39:03;18.65;;;10.52;;
21036;SDS011;10677;50.942;4.028;2023-05-19T02:41:29;19.67;;;9.95;;
21036;SDS011;10677;50.942;4.028;2023-05-19T02:43:55;19.67;;;9.98;;
21036;SDS011;10677;50.942;4.028;2023-05-19T02:46:22;17.50;;;9.70;;
21036;SDS011;10677;50.942;4.028;2023-05-19T02:48:48;18.40;;;9.65;;
21036;SDS011;10677;50.942;4.028;2023-05-19T02:51:14;21.40;;;10.20;;
21036;SDS011;10677;50.942;4.028;2023-05-19T02:53:40;16.17;;;9.75;;
21036;SDS011;10677;50.942;4.028;2023-05-19T02:56:05;16.50;;;9.82;;
21036;SDS011;10677;50.942;4.028;2023-05-19T02:58:31;20.30;;;9.85;;
21036;SDS011;10677;50.942;4.028;2023-05-19T03:00:57;17.17;;;9.35;;
21036;SDS011;10677;50.942;4.028;2023-05-19T03:03:22;17.33;;;10.18;;
21036;SDS011;10677;50.942;4.028;2023-05-19T03:05:48;18.23;;;10.38;;
21036;SDS011;10677;50.942;4.028;2023-05-19T03:08:14;17.23;;;10.18;;
21036;SDS011;10677;50.942;4.028;2023-05-19T03:10:39;18.15;;;10.02;;
21036;SDS011;10677;50.942;4.028;2023-05-19T03:13:05;19.42;;;10.93;;
21036;SDS011;10677;50.942;4.028;2023-05-19T03:15:31;19.10;;;11.07;;
21036;SDS011;10677;50.942;4.028;2023-05-19T03:17:57;21.23;;;10.43;;
21036;SDS011;10677;50.942;4.028;2023-05-19T03:20:22;20.20;;;10.45;;
21036;SDS011;10677;50.942;4.028;2023-05-19T03:22:48;18.52;;;10.45;;
21036;SDS011;10677;50.942;4.028;2023-05-19T03:25:14;17.02;;;10.90;;
21036;SDS011;10677;50.942;4.028;2023-05-19T03:27:41;22.08;;;12.18;;
21036;SDS011;10677;50.942;4.028;2023-05-19T03:30:07;21.35;;;12.13;;
21036;SDS011;10677;50.942;4.028;2023-05-19T03:32:33;18.88;;;11.52;;
21036;SDS011;10677;50.942;4.028;2023-05-19T03:35:03;19.75;;;10.98;;
21036;SDS011;10677;50.942;4.028;2023-05-19T03:37:30;23.42;;;11.85;;
21036;SDS011;10677;50.942;4.028;2023-05-19T03:39:57;21.02;;;11.60;;
21036;SDS011;10677;50.942;4.028;2023-05-19T03:42:26;21.35;;;10.98;;
21036;SDS011;10677;50.942;4.028;2023-05-19T03:44:51;18.92;;;10.98;;
21036;SDS011;10677;50.942;4.028;2023-05-19T03:47:17;19.10;;;11.80;;
21036;SDS011;10677;50.942;4.028;2023-05-19T03:49:42;18.13;;;10.98;;
21036;SDS011;10677;50.942;4.028;2023-05-19T03:52:08;20.08;;;11.45;;
21036;SDS011;10677;50.942;4.028;2023-05-19T03:54:34;25.08;;;11.60;;
21036;SDS011;10677;50.942;4.028;2023-05-19T03:57:02;21.10;;;12.10;;
21036;SDS011;10677;50.942;4.028;2023-05-19T03:59:29;22.73;;;11.68;;
21036;SDS011;10677;50.942;4.028;2023-05-19T04:01:55;21.17;;;12.02;;
21036;SDS011;10677;50.942;4.028;2023-05-19T04:04:21;21.85;;;12.57;;
21036;SDS011;10677;50.942;4.028;2023-05-19T04:06:47;20.20;;;11.63;;
21036;SDS011;10677;50.942;4.028;2023-05-19T04:09:13;19.88;;;12.27;;
21036;SDS011;10677;50.942;4.028;2023-05-19T04:11:41;19.55;;;11.82;;
21036;SDS011;10677;50.942;4.028;2023-05-19T04:14:07;20.63;;;11.90;;
21036;SDS011;10677;50.942;4.028;2023-05-19T04:16:33;21.15;;;11.65;;
21036;SDS011;10677;50.942;4.028;2023-05-19T04:18:59;21.55;;;12.88;;
21036;SDS011;10677;50.942;4.028;2023-05-19T04:21:25;21.95;;;12.45;;
21036;SDS011;10677;50.942;4.028;2023-05-19T04:23:51;21.75;;;13.32;;
21036;SDS011;10677;50.942;4.028;2023-05-19T04:26:17;21.58;;;13.10;;
21036;SDS011;10677;50.942;4.028;2023-05-19T04:28:45;22.88;;;12.35;;
21036;SDS011;10677;50.942;4.028;2023-05-19T04:31:12;21.70;;;12.68;;
21036;SDS011;10677;50.942;4.028;2023-05-19T04:33:38;24.42;;;12.60;;
21036;SDS011;10677;50.942;4.028;2023-05-19T04:36:05;21.85;;;12.32;;
21036;SDS011;10677;50.942;4.028;2023-05-19T04:38:34;21.83;;;11.57;;
21036;SDS011;10677;50.942;4.028;2023-05-19T04:41:01;21.65;;;12.02;;
21036;SDS011;10677;50.942;4.028;2023-05-19T04:43:30;23.92;;;11.90;;
21036;SDS011;10677;50.942;4.028;2023-05-19T04:45:56;20.88;;;11.95;;
21036;SDS011;10677;50.942;4.028;2023-05-19T04:48:22;24.00;;;13.32;;
21036;SDS011;10677;50.942;4.028;2023-05-19T04:50:48;24.92;;;12.18;;
21036;SDS011;10677;50.942;4.028;2023-05-19T04:53:16;21.17;;;12.43;;
21036;SDS011;10677;50.942;4.028;2023-05-19T04:55:42;19.17;;;11.10;;
21036;SDS011;10677;50.942;4.028;2023-05-19T04:58:08;20.85;;;12.55;;
21036;SDS011;10677;50.942;4.028;2023-05-19T05:00:34;25.38;;;13.18;;
21036;SDS011;10677;50.942;4.028;2023-05-19T05:03:00;19.27;;;12.10;;
21036;SDS011;10677;50.942;4.028;2023-05-19T05:05:29;21.52;;;12.40;;
21036;SDS011;10677;50.942;4.028;2023-05-19T05:07:55;21.17;;;12.75;;
21036;SDS011;10677;50.942;4.028;2023-05-19T05:10:21;23.83;;;12.48;;
21036;SDS011;10677;50.942;4.028;2023-05-19T05:12:47;23.90;;;12.75;;
21036;SDS011;10677;50.942;4.028;2023-05-19T05:15:13;19.50;;;12.10;;
21036;SDS011;10677;50.942;4.028;2023-05-19T05:17:39;17.30;;;11.43;;
21036;SDS011;10677;50.942;4.028;2023-05-19T05:20:05;27.13;;;12.80;;
21036;SDS011;10677;50.942;4.028;2023-05-19T05:22:32;22.40;;;12.18;;
21036;SDS011;10677;50.942;4.028;2023-05-19T05:24:58;22.83;;;11.43;;
21036;SDS011;10677;50.942;4.028;2023-05-19T05:27:25;24.88;;;12.98;;
21036;SDS011;10677;50.942;4.028;2023-05-19T05:29:51;21.83;;;11.52;;
21036;SDS011;10677;50.942;4.028;2023-05-19T05:32:17;19.77;;;11.93;;
21036;SDS011;10677;50.942;4.028;2023-05-19T05:34:42;16.10;;;11.32;;
21036;SDS011;10677;50.942;4.028;2023-05-19T05:37:08;22.45;;;11.10;;
21036;SDS011;10677;50.942;4.028;2023-05-19T05:39:35;20.10;;;11.05;;
21036;SDS011;10677;50.942;4.028;2023-05-19T05:42:00;19.20;;;10.27;;
21036;SDS011;10677;50.942;4.028;2023-05-19T05:44:26;16.80;;;10.70;;
21036;SDS011;10677;50.942;4.028;2023-05-19T05:46:52;19.98;;;10.80;;
21036;SDS011;10677;50.942;4.028;2023-05-19T05:49:18;21.50;;;11.75;;
21036;SDS011;10677;50.942;4.028;2023-05-19T05:51:45;16.98;;;10.48;;
21036;SDS011;10677;50.942;4.028;2023-05-19T05:54:11;15.40;;;10.90;;
21036;SDS011;10677;50.942;4.028;2023-05-19T05:56:37;16.67;;;10.15;;
21036;SDS011;10677;50.942;4.028;2023-05-19T05:59:03;19.20;;;11.32;;
21036;SDS011;10677;50.942;4.028;2023-05-19T06:01:29;22.65;;;10.63;;
21036;SDS011;10677;50.942;4.028;2023-05-19T06:03:55;17.75;;;9.93;;
21036;SDS011;10677;50.942;4.028;2023-05-19T06:06:24;20.13;;;9.77;;
21036;SDS011;10677;50.942;4.028;2023-05-19T06:08:50;19.73;;;9.90;;
21036;SDS011;10677;50.942;4.028;2023-05-19T06:13:51;19.95;;;10.38;;
21036;SDS011;10677;50.942;4.028;2023-05-19T06:16:16;20.75;;;10.35;;
21036;SDS011;10677;50.942;4.028;2023-05-19T06:18:42;20.92;;;9.80;;
21036;SDS011;10677;50.942;4.028;2023-05-19T06:26:19;21.13;;;10.43;;
21036;SDS011;10677;50.942;4.028;2023-05-19T06:28:44;19.05;;;10.02;;
21036;SDS011;10677;50.942;4.028;2023-05-19T06:31:10;20.60;;;10.65;;
21036;SDS011;10677;50.942;4.028;2023-05-19T06:33:36;17.65;;;9.73;;
21036;SDS011;10677;50.942;4.028;2023-05-19T06:36:01;21.90;;;10.13;;
21036;SDS011;10677;50.942;4.028;2023-05-19T06:38:27;15.88;;;10.63;;
21036;SDS011;10677;50.942;4.028;2023-05-19T06:40:53;20.52;;;9.63;;
21036;SDS011;10677;50.942;4.028;2023-05-19T06:43:18;16.13;;;9.50;;
21036;SDS011;10677;50.942;4.028;2023-05-19T06:45:44;16.65;;;9.10;;
21036;SDS011;10677;50.942;4.028;2023-05-19T06:48:10;16.90;;;9.48;;
21036;SDS011;10677;50.942;4.028;2023-05-19T06:50:35;20.70;;;9.60;;
21036;SDS011;10677;50.942;4.028;2023-05-19T06:53:01;18.33;;;9.20;;
21036;SDS011;10677;50.942;4.028;2023-05-19T06:55:27;14.35;;;9.63;;
21036;SDS011;10677;50.942;4.028;2023-05-19T06:57:52;17.40;;;9.65;;
21036;SDS011;10677;50.942;4.028;2023-05-19T07:00:18;17.77;;;9.77;;
21036;SDS011;10677;50.942;4.028;2023-05-19T07:02:44;17.98;;;9.73;;
21036;SDS011;10677;50.942;4.028;2023-05-19T07:05:09;15.23;;;8.40;;
21036;SDS011;10677;50.942;4.028;2023-05-19T07:07:35;19.95;;;9.50;;
21036;SDS011;10677;50.942;4.028;2023-05-19T07:10:01;15.88;;;9.63;;
21036;SDS011;10677;50.942;4.028;2023-05-19T07:12:27;22.95;;;9.40;;
21036;SDS011;10677;50.942;4.028;2023-05-19T07:14:52;15.15;;;8.75;;
21036;SDS011;10677;50.942;4.028;2023-05-19T07:17:18;21.98;;;9.25;;
21036;SDS011;10677;50.942;4.028;2023-05-19T07:19:44;14.05;;;9.07;;
21036;SDS011;10677;50.942;4.028;2023-05-19T07:22:09;16.73;;;9.60;;
21036;SDS011;10677;50.942;4.028;2023-05-19T07:24:35;13.68;;;8.93;;
21036;SDS011;10677;50.942;4.028;2023-05-19T07:27:01;17.13;;;9.30;;
21036;SDS011;10677;50.942;4.028;2023-05-19T07:29:26;17.13;;;9.50;;
21036;SDS011;10677;50.942;4.028;2023-05-19T07:31:52;18.10;;;9.25;;
21036;SDS011;10677;50.942;4.028;2023-05-19T07:34:21;17.50;;;9.95;;
21036;SDS011;10677;50.942;4.028;2023-05-19T07:36:47;18.80;;;10.50;;
21036;SDS011;10677;50.942;4.028;2023-05-19T07:39:13;16.90;;;9.80;;
21036;SDS011;10677;50.942;4.028;2023-05-19T07:41:39;17.88;;;9.50;;
21036;SDS011;10677;50.942;4.028;2023-05-19T07:44:05;16.77;;;8.98;;
21036;SDS011;10677;50.942;4.028;2023-05-19T07:46:32;20.00;;;10.63;;
21036;SDS011;10677;50.942;4.028;2023-05-19T07:49:03;14.98;;;9.13;;
21036;SDS011;10677;50.942;4.028;2023-05-19T07:51:30;17.60;;;9.52;;
21036;SDS011;10677;50.942;4.028;2023-05-19T07:53:56;17.70;;;8.88;;
21036;SDS011;10677;50.942;4.028;2023-05-19T07:56:22;15.02;;;8.25;;
21036;SDS011;10677;50.942;4.028;2023-05-19T07:58:48;17.50;;;9.52;;
21036;SDS011;10677;50.942;4.028;2023-05-19T08:01:18;17.02;;;9.50;;
21036;SDS011;10677;50.942;4.028;2023-05-19T08:03:44;16.60;;;9.93;;
21036;SDS011;10677;50.942;4.028;2023-05-19T08:06:09;16.98;;;9.15;;
21036;SDS011;10677;50.942;4.028;2023-05-19T08:08:35;13.48;;;9.10;;
21036;SDS011;10677;50.942;4.028;2023-05-19T08:11:01;14.82;;;8.23;;
21036;SDS011;10677;50.942;4.028;2023-05-19T08:13:29;13.73;;;9.23;;
21036;SDS011;10677;50.942;4.028;2023-05-19T08:15:55;16.58;;;9.00;;
21036;SDS011;10677;50.942;4.028;2023-05-19T08:18:24;17.48;;;8.68;;
21036;SDS011;10677;50.942;4.028;2023-05-19T08:20:49;15.68;;;9.35;;
21036;SDS011;10677;50.942;4.028;2023-05-19T08:23:15;20.67;;;9.13;;
21036;SDS011;10677;50.942;4.028;2023-05-19T08:25:42;15.20;;;8.20;;
21036;SDS011;10677;50.942;4.028;2023-05-19T08:28:08;16.08;;;8.32;;
21036;SDS011;10677;50.942;4.028;2023-05-19T08:30:34;16.25;;;8.68;;
21036;SDS011;10677;50.942;4.028;2023-05-19T08:33:00;19.30;;;10.32;;
21036;SDS011;10677;50.942;4.028;2023-05-19T08:35:26;18.02;;;9.30;;
21036;SDS011;10677;50.942;4.028;2023-05-19T08:37:52;13.88;;;8.10;;
21036;SDS011;10677;50.942;4.028;2023-05-19T08:40:18;13.95;;;8.80;;
21036;SDS011;10677;50.942;4.028;2023-05-19T08:42:45;12.57;;;8.10;;
21036;SDS011;10677;50.942;4.028;2023-05-19T08:45:11;14.35;;;8.82;;
21036;SDS011;10677;50.942;4.028;2023-05-19T08:47:37;14.90;;;7.78;;
21036;SDS011;10677;50.942;4.028;2023-05-19T08:50:06;15.27;;;7.63;;
21036;SDS011;10677;50.942;4.028;2023-05-19T08:55:07;17.88;;;8.13;;
21036;SDS011;10677;50.942;4.028;2023-05-19T08:57:37;16.98;;;8.25;;
21036;SDS011;10677;50.942;4.028;2023-05-19T09:00:03;15.00;;;8.25;;
21036;SDS011;10677;50.942;4.028;2023-05-19T09:02:36;14.77;;;7.82;;
21036;SDS011;10677;50.942;4.028;2023-05-19T09:05:04;13.85;;;7.43;;
21036;SDS011;10677;50.942;4.028;2023-05-19T09:07:31;13.48;;;7.13;;
21036;SDS011;10677;50.942;4.028;2023-05-19T09:09:59;16.23;;;7.63;;
21036;SDS011;10677;50.942;4.028;2023-05-19T09:12:26;13.55;;;6.72;;
21036;SDS011;10677;50.942;4.028;2023-05-19T09:14:52;13.20;;;7.45;;
21036;SDS011;10677;50.942;4.028;2023-05-19T09:17:17;13.15;;;7.38;;
21036;SDS011;10677;50.942;4.028;2023-05-19T09:19:43;17.23;;;7.28;;
21036;SDS011;10677;50.942;4.028;2023-05-19T09:22:13;11.40;;;5.90;;
21036;SDS011;10677;50.942;4.028;2023-05-19T09:24:39;11.10;;;5.95;;
21036;SDS011;10677;50.942;4.028;2023-05-19T09:27:06;13.18;;;6.65;;
21036;SDS011;10677;50.942;4.028;2023-05-19T09:29:32;12.68;;;6.65;;
21036;SDS011;10677;50.942;4.028;2023-05-19T09:31:57;10.77;;;6.60;;
21036;SDS011;10677;50.942;4.028;2023-05-19T09:34:28;12.57;;;5.90;;
21036;SDS011;10677;50.942;4.028;2023-05-19T09:36:54;12.15;;;5.57;;
21036;SDS011;10677;50.942;4.028;2023-05-19T09:39:20;10.13;;;5.45;;
21036;SDS011;10677;50.942;4.028;2023-05-19T09:41:51;13.05;;;6.00;;
21036;SDS011;10677;50.942;4.028;2023-05-19T09:46:56;10.38;;;5.70;;
21036;SDS011;10677;50.942;4.028;2023-05-19T09:49:26;13.88;;;5.28;;
21036;SDS011;10677;50.942;4.028;2023-05-19T09:51:57;10.77;;;5.30;;
21036;SDS011;10677;50.942;4.028;2023-05-19T09:54:23;15.07;;;5.85;;
21036;SDS011;10677;50.942;4.028;2023-05-19T09:56:57;8.23;;;4.90;;
21036;SDS011;10677;50.942;4.028;2023-05-19T09:59:28;11.73;;;5.20;;
21036;SDS011;10677;50.942;4.028;2023-05-19T10:01:54;13.10;;;4.97;;
21036;SDS011;10677;50.942;4.028;2023-05-19T10:04:22;13.98;;;5.85;;
21036;SDS011;10677;50.942;4.028;2023-05-19T10:06:50;8.80;;;5.10;;
21036;SDS011;10677;50.942;4.028;2023-05-19T10:09:20;12.55;;;4.55;;
21036;SDS011;10677;50.942;4.028;2023-05-19T10:11:50;9.95;;;4.97;;
21036;SDS011;10677;50.942;4.028;2023-05-19T10:14:18;8.90;;;4.65;;
21036;SDS011;10677;50.942;4.028;2023-05-19T10:16:49;11.13;;;5.03;;
21036;SDS011;10677;50.942;4.028;2023-05-19T10:19:17;10.75;;;5.15;;
21036;SDS011;10677;50.942;4.028;2023-05-19T10:21:46;13.75;;;4.80;;
21036;SDS011;10677;50.942;4.028;2023-05-19T10:24:12;10.88;;;4.70;;
21036;SDS011;10677;50.942;4.028;2023-05-19T10:26:38;10.18;;;4.22;;
21036;SDS011;10677;50.942;4.028;2023-05-19T10:29:05;10.02;;;3.28;;
21036;SDS011;10677;50.942;4.028;2023-05-19T10:31:31;10.05;;;5.00;;
21036;SDS011;10677;50.942;4.028;2023-05-19T10:36:43;9.48;;;4.18;;
21036;SDS011;10677;50.942;4.028;2023-05-19T10:39:15;10.93;;;3.35;;
21036;SDS011;10677;50.942;4.028;2023-05-19T10:42:00;9.25;;;3.63;;
21036;SDS011;10677;50.942;4.028;2023-05-19T10:44:45;7.32;;;3.40;;
21036;SDS011;10677;50.942;4.028;2023-05-19T10:47:26;9.70;;;4.13;;
21036;SDS011;10677;50.942;4.028;2023-05-19T10:49:53;11.05;;;4.65;;
21036;SDS011;10677;50.942;4.028;2023-05-19T10:52:20;10.25;;;5.43;;
21036;SDS011;10677;50.942;4.028;2023-05-19T10:54:47;10.30;;;4.65;;
21036;SDS011;10677;50.942;4.028;2023-05-19T10:57:16;10.57;;;5.60;;
21036;SDS011;10677;50.942;4.028;2023-05-19T10:59:44;11.55;;;5.28;;
21036;SDS011;10677;50.942;4.028;2023-05-19T11:02:10;10.15;;;4.70;;
21036;SDS011;10677;50.942;4.028;2023-05-19T11:05:08;8.77;;;4.40;;
21036;SDS011;10677;50.942;4.028;2023-05-19T11:07:57;7.15;;;4.18;;
21036;SDS011;10677;50.942;4.028;2023-05-19T11:10:32;11.35;;;5.05;;
21036;SDS011;10677;50.942;4.028;2023-05-19T11:12:58;10.25;;;4.40;;
21036;SDS011;10677;50.942;4.028;2023-05-19T11:15:24;8.82;;;4.20;;
21036;SDS011;10677;50.942;4.028;2023-05-19T11:17:51;9.18;;;4.43;;
21036;SDS011;10677;50.942;4.028;2023-05-19T11:20:21;7.65;;;4.20;;
21036;SDS011;10677;50.942;4.028;2023-05-19T11:23:14;8.68;;;4.40;;
21036;SDS011;10677;50.942;4.028;2023-05-19T11:25:47;7.78;;;4.80;;
21036;SDS011;10677;50.942;4.028;2023-05-19T11:28:15;7.80;;;4.10;;
21036;SDS011;10677;50.942;4.028;2023-05-19T11:30:43;8.30;;;4.10;;
21036;SDS011;10677;50.942;4.028;2023-05-19T11:33:10;10.80;;;4.22;;
21036;SDS011;10677;50.942;4.028;2023-05-19T11:35:37;8.60;;;4.30;;
21036;SDS011;10677;50.942;4.028;2023-05-19T11:38:04;7.82;;;4.07;;
21036;SDS011;10677;50.942;4.028;2023-05-19T11:40:31;13.75;;;4.53;;
21036;SDS011;10677;50.942;4.028;2023-05-19T11:42:57;8.40;;;4.32;;
21036;SDS011;10677;50.942;4.028;2023-05-19T11:45:28;12.85;;;5.03;;
21036;SDS011;10677;50.942;4.028;2023-05-19T11:47:57;8.45;;;3.83;;
21036;SDS011;10677;50.942;4.028;2023-05-19T11:50:23;8.55;;;4.72;;
21036;SDS011;10677;50.942;4.028;2023-05-19T11:52:53;8.75;;;3.42;;
21036;SDS011;10677;50.942;4.028;2023-05-19T11:55:20;8.50;;;3.78;;
21036;SDS011;10677;50.942;4.028;2023-05-19T11:57:58;8.68;;;3.63;;
21036;SDS011;10677;50.942;4.028;2023-05-19T12:00:28;9.82;;;3.90;;
21036;SDS011;10677;50.942;4.028;2023-05-19T12:02:55;7.38;;;3.10;;
21036;SDS011;10677;50.942;4.028;2023-05-19T12:05:25;8.38;;;3.83;;
21036;SDS011;10677;50.942;4.028;2023-05-19T12:07:52;10.52;;;4.30;;
21036;SDS011;10677;50.942;4.028;2023-05-19T12:10:27;6.47;;;3.55;;
21036;SDS011;10677;50.942;4.028;2023-05-19T12:12:55;9.18;;;3.80;;
21036;SDS011;10677;50.942;4.028;2023-05-19T12:15:22;10.13;;;3.85;;
21036;SDS011;10677;50.942;4.028;2023-05-19T12:17:55;9.05;;;3.30;;
21036;SDS011;10677;50.942;4.028;2023-05-19T12:20:24;7.65;;;3.17;;
21036;SDS011;10677;50.942;4.028;2023-05-19T12:22:55;7.45;;;3.20;;
21036;SDS011;10677;50.942;4.028;2023-05-19T12:25:22;8.05;;;3.00;;
21036;SDS011;10677;50.942;4.028;2023-05-19T12:27:49;7.65;;;3.38;;
21036;SDS011;10677;50.942;4.028;2023-05-19T12:30:23;9.70;;;3.55;;
21036;SDS011;10677;50.942;4.028;2023-05-19T12:32:53;9.63;;;2.83;;
21036;SDS011;10677;50.942;4.028;2023-05-19T12:35:24;7.90;;;2.97;;
21036;SDS011;10677;50.942;4.028;2023-05-19T12:37:52;8.32;;;3.80;;
21036;SDS011;10677;50.942;4.028;2023-05-19T12:40:24;8.88;;;3.67;;
21036;SDS011;10677;50.942;4.028;2023-05-19T12:42:50;7.82;;;3.15;;
21036;SDS011;10677;50.942;4.028;2023-05-19T12:45:19;6.70;;;3.60;;
21036;SDS011;10677;50.942;4.028;2023-05-19T12:47:47;11.50;;;3.45;;
21036;SDS011;10677;50.942;4.028;2023-05-19T12:50:15;8.05;;;3.70;;
21036;SDS011;10677;50.942;4.028;2023-05-19T12:52:47;9.32;;;3.72;;
21036;SDS011;10677;50.942;4.028;2023-05-19T12:55:16;8.27;;;3.33;;
21036;SDS011;10677;50.942;4.028;2023-05-19T12:57:47;8.80;;;3.35;;
21036;SDS011;10677;50.942;4.028;2023-05-19T13:03:04;6.50;;;3.20;;
21036;SDS011;10677;50.942;4.028;2023-05-19T13:05:32;7.50;;;3.05;;
21036;SDS011;10677;50.942;4.028;2023-05-19T13:08:06;7.65;;;3.25;;
21036;SDS011;10677;50.942;4.028;2023-05-19T13:10:37;10.02;;;3.50;;
21036;SDS011;10677;50.942;4.028;2023-05-19T13:13:04;6.38;;;3.10;;
21036;SDS011;10677;50.942;4.028;2023-05-19T13:15:33;8.52;;;3.33;;
21036;SDS011;10677;50.942;4.028;2023-05-19T13:18:02;8.65;;;3.10;;
21036;SDS011;10677;50.942;4.028;2023-05-19T13:20:30;9.55;;;3.08;;
21036;SDS011;10677;50.942;4.028;2023-05-19T13:22:57;6.13;;;2.80;;
21036;SDS011;10677;50.942;4.028;2023-05-19T13:25:24;9.15;;;2.92;;
21036;SDS011;10677;50.942;4.028;2023-05-19T13:27:52;11.85;;;3.25;;
21036;SDS011;10677;50.942;4.028;2023-05-19T13:30:19;8.13;;;2.90;;
21036;SDS011;10677;50.942;4.028;2023-05-19T13:32:46;5.63;;;2.70;;
21036;SDS011;10677;50.942;4.028;2023-05-19T13:35:15;6.78;;;3.00;;
21036;SDS011;10677;50.942;4.028;2023-05-19T13:37:43;11.07;;;3.10;;
21036;SDS011;10677;50.942;4.028;2023-05-19T13:40:09;7.13;;;2.90;;
21036;SDS011;10677;50.942;4.028;2023-05-19T13:42:35;6.68;;;2.80;;
21036;SDS011;10677;50.942;4.028;2023-05-19T13:45:02;8.20;;;2.85;;
21036;SDS011;10677;50.942;4.028;2023-05-19T13:47:28;7.47;;;2.53;;
21036;SDS011;10677;50.942;4.028;2023-05-19T13:49:56;7.60;;;2.97;;
21036;SDS011;10677;50.942;4.028;2023-05-19T13:52:21;6.45;;;2.80;;
21036;SDS011;10677;50.942;4.028;2023-05-19T13:54:47;7.85;;;2.75;;
21036;SDS011;10677;50.942;4.028;2023-05-19T13:57:14;8.32;;;3.20;;
21036;SDS011;10677;50.942;4.028;2023-05-19T13:59:40;8.32;;;2.78;;
21036;SDS011;10677;50.942;4.028;2023-05-19T14:02:09;7.75;;;3.55;;
21036;SDS011;10677;50.942;4.028;2023-05-19T14:04:38;7.93;;;3.40;;
21036;SDS011;10677;50.942;4.028;2023-05-19T14:07:07;9.82;;;3.38;;
21036;SDS011;10677;50.942;4.028;2023-05-19T14:09:36;9.68;;;3.47;;
21036;SDS011;10677;50.942;4.028;2023-05-19T14:12:01;7.55;;;3.00;;
21036;SDS011;10677;50.942;4.028;2023-05-19T14:14:27;11.82;;;2.90;;
21036;SDS011;10677;50.942;4.028;2023-05-19T14:16:53;6.63;;;3.20;;
21036;SDS011;10677;50.942;4.028;2023-05-19T14:19:20;11.38;;;3.45;;
21036;SDS011;10677;50.942;4.028;2023-05-19T14:21:49;6.95;;;3.15;;
21036;SDS011;10677;50.942;4.028;2023-05-19T14:24:15;6.32;;;2.72;;
21036;SDS011;10677;50.942;4.028;2023-05-19T14:26:41;8.60;;;3.20;;
21036;SDS011;10677;50.942;4.028;2023-05-19T14:29:07;7.30;;;3.10;;
21036;SDS011;10677;50.942;4.028;2023-05-19T14:31:33;10.38;;;3.90;;
21036;SDS011;10677;50.942;4.028;2023-05-19T14:33:59;7.05;;;2.80;;
21036;SDS011;10677;50.942;4.028;2023-05-19T14:36:26;7.75;;;3.20;;
21036;SDS011;10677;50.942;4.028;2023-05-19T14:38:51;7.43;;;3.35;;
21036;SDS011;10677;50.942;4.028;2023-05-19T14:41:17;6.93;;;2.88;;
21036;SDS011;10677;50.942;4.028;2023-05-19T14:43:43;10.02;;;3.30;;
21036;SDS011;10677;50.942;4.028;2023-05-19T14:46:09;7.97;;;2.80;;
21036;SDS011;10677;50.942;4.028;2023-05-19T15:01:21;10.50;;;2.60;;
21036;SDS011;10677;50.942;4.028;2023-05-19T15:03:47;6.55;;;2.72;;
21036;SDS011;10677;50.942;4.028;2023-05-19T15:06:13;8.50;;;2.70;;
21036;SDS011;10677;50.942;4.028;2023-05-19T15:08:38;6.90;;;2.30;;
21036;SDS011;10677;50.942;4.028;2023-05-19T15:11:05;8.77;;;2.50;;
21036;SDS011;10677;50.942;4.028;2023-05-19T15:13:31;10.38;;;2.80;;
21036;SDS011;10677;50.942;4.028;2023-05-19T15:15:57;8.55;;;2.72;;
21036;SDS011;10677;50.942;4.028;2023-05-19T15:18:23;6.05;;;2.33;;
21036;SDS011;10677;50.942;4.028;2023-05-19T15:20:50;8.82;;;2.58;;
21036;SDS011;10677;50.942;4.028;2023-05-19T15:23:15;7.47;;;2.40;;
21036;SDS011;10677;50.942;4.028;2023-05-19T15:25:41;9.65;;;2.38;;
21036;SDS011;10677;50.942;4.028;2023-05-19T15:28:06;6.88;;;2.63;;
21036;SDS011;10677;50.942;4.028;2023-05-19T15:30:32;6.72;;;2.47;;
21036;SDS011;10677;50.942;4.028;2023-05-19T15:32:58;7.88;;;2.63;;